sensor_id;sensor_type;location;lat;lon;timestamp;temperature;humidity
18305;DHT22;9278;52.156;21.048;2023-07-08T00:01:12;25.80;1.00
18305;DHT22;9278;52.156;21.048;2023-07-08T00:03:41;25.90;1.00
18305;DHT22;9278;52.156;21.048;2023-07-08T00:06:13;25.80;1.00
18305;DHT22;9278;52.156;21.048;2023-07-08T00:08:42;25.90;1.00
18305;DHT22;9278;52.156;21.048;2023-07-08T00:11:11;25.90;1.00
18305;DHT22;9278;52.156;21.048;2023-07-08T00:13:39;25.90;1.00
18305;DHT22;9278;52.156;21.048;2023-07-08T00:16:11;25.90;1.00
18305;DHT22;9278;52.156;21.048;2023-07-08T00:18:40;26.00;1.00
18305;DHT22;9278;52.156;21.048;2023-07-08T00:21:09;26.00;1.00
18305;DHT22;9278;52.156;21.048;2023-07-08T00:23:44;26.00;1.00
18305;DHT22;9278;52.156;21.048;2023-07-08T00:26:17;26.00;1.00
18305;DHT22;9278;52.156;21.048;2023-07-08T00:28:47;26.00;1.00
18305;DHT22;9278;52.156;21.048;2023-07-08T00:31:16;25.90;1.00
18305;DHT22;9278;52.156;21.048;2023-07-08T00:33:53;25.90;1.00
18305;DHT22;9278;52.156;21.048;2023-07-08T00:36:25;25.90;1.00
18305;DHT22;9278;52.156;21.048;2023-07-08T00:38:54;25.90;1.00
18305;DHT22;9278;52.156;21.048;2023-07-08T00:41:27;25.90;1.00
18305;DHT22;9278;52.156;21.048;2023-07-08T00:43:57;25.90;1.00
18305;DHT22;9278;52.156;21.048;2023-07-08T00:46:34;25.80;1.00
18305;DHT22;9278;52.156;21.048;2023-07-08T00:49:23;25.90;1.00
18305;DHT22;9278;52.156;21.048;2023-07-08T00:51:53;25.80;1.00
18305;DHT22;9278;52.156;21.048;2023-07-08T00:54:21;25.80;1.00
18305;DHT22;9278;52.156;21.048;2023-07-08T00:56:51;25.80;1.00
18305;DHT22;9278;52.156;21.048;2023-07-08T00:59:25;25.80;1.00
18305;DHT22;9278;52.156;21.048;2023-07-08T01:01:57;25.80;1.00
18305;DHT22;9278;52.156;21.048;2023-07-08T01:04:32;25.80;1.00
18305;DHT22;9278;52.156;21.048;2023-07-08T01:07:02;25.80;1.00
18305;DHT22;9278;52.156;21.048;2023-07-08T01:09:37;25.80;1.00
18305;DHT22;9278;52.156;21.048;2023-07-08T01:12:12;25.80;1.00
18305;DHT22;9278;52.156;21.048;2023-07-08T01:14:42;25.80;1.00
18305;DHT22;9278;52.156;21.048;2023-07-08T01:17:12;25.80;1.00
18305;DHT22;9278;52.156;21.048;2023-07-08T01:19:42;25.70;1.00
18305;DHT22;9278;52.156;21.048;2023-07-08T01:22:12;25.70;1.00
18305;DHT22;9278;52.156;21.048;2023-07-08T01:24:42;25.70;1.00
18305;DHT22;9278;52.156;21.048;2023-07-08T01:27:13;25.70;1.00
18305;DHT22;9278;52.156;21.048;2023-07-08T01:29:43;25.70;1.00
18305;DHT22;9278;52.156;21.048;2023-07-08T01:32:13;25.70;1.00
18305;DHT22;9278;52.156;21.048;2023-07-08T01:34:46;25.70;1.00
18305;DHT22;9278;52.156;21.048;2023-07-08T01:37:34;25.70;1.00
18305;DHT22;9278;52.156;21.048;2023-07-08T01:40:25;25.60;1.00
18305;DHT22;9278;52.156;21.048;2023-07-08T01:42:54;25.60;1.00
18305;DHT22;9278;52.156;21.048;2023-07-08T01:45:24;25.60;1.00
18305;DHT22;9278;52.156;21.048;2023-07-08T01:47:56;25.60;1.00
18305;DHT22;9278;52.156;21.048;2023-07-08T01:50:27;25.60;1.00
18305;DHT22;9278;52.156;21.048;2023-07-08T01:52:59;25.50;1.00
18305;DHT22;9278;52.156;21.048;2023-07-08T01:55:29;25.50;1.00
18305;DHT22;9278;52.156;21.048;2023-07-08T01:57:58;25.60;1.00
18305;DHT22;9278;52.156;21.048;2023-07-08T02:00:26;25.50;1.00
18305;DHT22;9278;52.156;21.048;2023-07-08T02:02:54;25.60;1.00
18305;DHT22;9278;52.156;21.048;2023-07-08T02:05:23;25.60;1.00
18305;DHT22;9278;52.156;21.048;2023-07-08T02:07:52;25.60;1.00
18305;DHT22;9278;52.156;21.048;2023-07-08T02:10:21;25.60;1.00
18305;DHT22;9278;52.156;21.048;2023-07-08T02:12:52;25.60;1.00
18305;DHT22;9278;52.156;21.048;2023-07-08T02:15:20;25.60;1.00
18305;DHT22;9278;52.156;21.048;2023-07-08T02:17:49;25.60;1.00
18305;DHT22;9278;52.156;21.048;2023-07-08T02:20:17;25.50;1.00
18305;DHT22;9278;52.156;21.048;2023-07-08T02:22:46;25.60;1.00
18305;DHT22;9278;52.156;21.048;2023-07-08T02:25:14;25.60;1.00
18305;DHT22;9278;52.156;21.048;2023-07-08T02:27:44;25.60;1.00
18305;DHT22;9278;52.156;21.048;2023-07-08T02:30:12;25.60;1.00
18305;DHT22;9278;52.156;21.048;2023-07-08T02:32:40;25.60;1.00
18305;DHT22;9278;52.156;21.048;2023-07-08T02:35:25;25.60;1.00
18305;DHT22;9278;52.156;21.048;2023-07-08T02:37:55;25.60;1.00
18305;DHT22;9278;52.156;21.048;2023-07-08T02:40:24;25.60;1.00
18305;DHT22;9278;52.156;21.048;2023-07-08T02:42:55;25.60;1.00
18305;DHT22;9278;52.156;21.048;2023-07-08T02:45:23;25.60;1.00
18305;DHT22;9278;52.156;21.048;2023-07-08T02:47:52;25.60;1.00
18305;DHT22;9278;52.156;21.048;2023-07-08T02:50:21;25.60;1.00
18305;DHT22;9278;52.156;21.048;2023-07-08T02:52:49;25.60;1.00
18305;DHT22;9278;52.156;21.048;2023-07-08T02:55:17;25.60;1.00
18305;DHT22;9278;52.156;21.048;2023-07-08T02:57:46;25.60;1.00
18305;DHT22;9278;52.156;21.048;2023-07-08T03:00:16;25.60;1.00
18305;DHT22;9278;52.156;21.048;2023-07-08T03:02:45;25.60;1.00
18305;DHT22;9278;52.156;21.048;2023-07-08T03:05:13;25.60;1.00
18305;DHT22;9278;52.156;21.048;2023-07-08T03:07:42;25.60;1.00
18305;DHT22;9278;52.156;21.048;2023-07-08T03:10:10;25.60;1.00
18305;DHT22;9278;52.156;21.048;2023-07-08T03:12:38;25.60;1.00
18305;DHT22;9278;52.156;21.048;2023-07-08T03:15:07;25.60;1.00
18305;DHT22;9278;52.156;21.048;2023-07-08T03:17:37;25.60;1.00
18305;DHT22;9278;52.156;21.048;2023-07-08T03:20:07;25.60;1.00
18305;DHT22;9278;52.156;21.048;2023-07-08T03:22:35;25.70;1.00
18305;DHT22;9278;52.156;21.048;2023-07-08T03:25:04;25.60;1.00
18305;DHT22;9278;52.156;21.048;2023-07-08T03:27:33;25.60;1.00
18305;DHT22;9278;52.156;21.048;2023-07-08T03:30:01;25.60;1.00
18305;DHT22;9278;52.156;21.048;2023-07-08T03:32:33;25.70;1.00
18305;DHT22;9278;52.156;21.048;2023-07-08T03:35:03;25.70;1.00
18305;DHT22;9278;52.156;21.048;2023-07-08T03:37:32;25.70;1.00
18305;DHT22;9278;52.156;21.048;2023-07-08T03:40:00;25.70;1.00
18305;DHT22;9278;52.156;21.048;2023-07-08T03:42:29;25.70;1.00
18305;DHT22;9278;52.156;21.048;2023-07-08T03:44:57;25.70;1.00
18305;DHT22;9278;52.156;21.048;2023-07-08T03:47:26;25.70;1.00
18305;DHT22;9278;52.156;21.048;2023-07-08T03:49:54;25.70;1.00
18305;DHT22;9278;52.156;21.048;2023-07-08T03:52:24;25.70;1.00
18305;DHT22;9278;52.156;21.048;2023-07-08T03:54:52;25.70;1.00
18305;DHT22;9278;52.156;21.048;2023-07-08T03:57:21;25.70;1.00
18305;DHT22;9278;52.156;21.048;2023-07-08T03:59:50;25.70;1.00
18305;DHT22;9278;52.156;21.048;2023-07-08T04:02:19;25.70;1.00
18305;DHT22;9278;52.156;21.048;2023-07-08T04:04:47;25.70;1.00
18305;DHT22;9278;52.156;21.048;2023-07-08T04:07:17;25.70;1.00
18305;DHT22;9278;52.156;21.048;2023-07-08T04:09:47;25.70;1.00
18305;DHT22;9278;52.156;21.048;2023-07-08T04:12:18;25.70;1.00
18305;DHT22;9278;52.156;21.048;2023-07-08T04:14:46;25.70;1.00
18305;DHT22;9278;52.156;21.048;2023-07-08T04:17:15;25.70;1.00
18305;DHT22;9278;52.156;21.048;2023-07-08T04:19:44;25.70;1.00
18305;DHT22;9278;52.156;21.048;2023-07-08T04:22:13;25.70;1.00
18305;DHT22;9278;52.156;21.048;2023-07-08T04:24:41;25.70;1.00
18305;DHT22;9278;52.156;21.048;2023-07-08T04:27:14;25.70;1.00
18305;DHT22;9278;52.156;21.048;2023-07-08T04:29:43;25.70;1.00
18305;DHT22;9278;52.156;21.048;2023-07-08T04:32:12;25.70;1.00
18305;DHT22;9278;52.156;21.048;2023-07-08T04:34:40;25.70;1.00
18305;DHT22;9278;52.156;21.048;2023-07-08T04:37:10;25.70;1.00
18305;DHT22;9278;52.156;21.048;2023-07-08T04:39:39;25.70;1.00
18305;DHT22;9278;52.156;21.048;2023-07-08T04:42:07;25.70;1.00
18305;DHT22;9278;52.156;21.048;2023-07-08T04:44:37;25.80;1.00
18305;DHT22;9278;52.156;21.048;2023-07-08T04:47:06;25.80;1.00
18305;DHT22;9278;52.156;21.048;2023-07-08T04:49:36;25.80;1.00
18305;DHT22;9278;52.156;21.048;2023-07-08T04:52:05;25.80;1.00
18305;DHT22;9278;52.156;21.048;2023-07-08T04:54:33;25.80;1.00
18305;DHT22;9278;52.156;21.048;2023-07-08T04:57:01;25.80;1.00
18305;DHT22;9278;52.156;21.048;2023-07-08T04:59:30;25.90;1.00
18305;DHT22;9278;52.156;21.048;2023-07-08T05:02:03;25.90;1.00
18305;DHT22;9278;52.156;21.048;2023-07-08T05:04:32;25.80;1.00
18305;DHT22;9278;52.156;21.048;2023-07-08T05:07:01;25.80;1.00
18305;DHT22;9278;52.156;21.048;2023-07-08T05:09:29;25.90;1.00
18305;DHT22;9278;52.156;21.048;2023-07-08T05:11:58;25.90;1.00
18305;DHT22;9278;52.156;21.048;2023-07-08T05:14:26;25.90;1.00
18305;DHT22;9278;52.156;21.048;2023-07-08T05:16:56;25.90;1.00
18305;DHT22;9278;52.156;21.048;2023-07-08T05:19:27;25.90;1.00
18305;DHT22;9278;52.156;21.048;2023-07-08T05:21:55;26.00;1.00
18305;DHT22;9278;52.156;21.048;2023-07-08T05:24:23;26.00;1.00
18305;DHT22;9278;52.156;21.048;2023-07-08T05:26:52;26.00;1.00
18305;DHT22;9278;52.156;21.048;2023-07-08T05:29:24;26.00;1.00
18305;DHT22;9278;52.156;21.048;2023-07-08T05:31:55;26.00;1.00
18305;DHT22;9278;52.156;21.048;2023-07-08T05:34:23;26.00;1.00
18305;DHT22;9278;52.156;21.048;2023-07-08T05:36:53;26.00;1.00
18305;DHT22;9278;52.156;21.048;2023-07-08T05:39:21;26.00;1.00
18305;DHT22;9278;52.156;21.048;2023-07-08T05:41:50;26.00;1.00
18305;DHT22;9278;52.156;21.048;2023-07-08T05:44:18;26.00;1.00
18305;DHT22;9278;52.156;21.048;2023-07-08T05:46:47;26.00;1.00
18305;DHT22;9278;52.156;21.048;2023-07-08T05:49:15;26.00;1.00
18305;DHT22;9278;52.156;21.048;2023-07-08T05:51:43;26.00;1.00
18305;DHT22;9278;52.156;21.048;2023-07-08T05:54:13;26.00;1.00
18305;DHT22;9278;52.156;21.048;2023-07-08T05:56:42;26.00;1.00
18305;DHT22;9278;52.156;21.048;2023-07-08T05:59:10;26.00;1.00
18305;DHT22;9278;52.156;21.048;2023-07-08T06:01:39;26.00;1.00
18305;DHT22;9278;52.156;21.048;2023-07-08T06:04:07;26.00;1.00
18305;DHT22;9278;52.156;21.048;2023-07-08T06:06:36;26.00;1.00
18305;DHT22;9278;52.156;21.048;2023-07-08T06:09:04;26.00;1.00
18305;DHT22;9278;52.156;21.048;2023-07-08T06:11:34;26.00;1.00
18305;DHT22;9278;52.156;21.048;2023-07-08T06:14:02;26.00;1.00
18305;DHT22;9278;52.156;21.048;2023-07-08T06:16:31;26.10;1.00
18305;DHT22;9278;52.156;21.048;2023-07-08T06:19:08;26.10;1.00
18305;DHT22;9278;52.156;21.048;2023-07-08T06:21:37;26.10;1.00
18305;DHT22;9278;52.156;21.048;2023-07-08T06:24:06;26.10;1.00
18305;DHT22;9278;52.156;21.048;2023-07-08T06:26:35;26.10;1.00
18305;DHT22;9278;52.156;21.048;2023-07-08T06:29:04;26.10;1.00
18305;DHT22;9278;52.156;21.048;2023-07-08T06:31:32;26.10;1.00
18305;DHT22;9278;52.156;21.048;2023-07-08T06:34:01;26.10;1.00
18305;DHT22;9278;52.156;21.048;2023-07-08T06:36:31;26.10;1.00
18305;DHT22;9278;52.156;21.048;2023-07-08T06:38:59;26.10;1.00
18305;DHT22;9278;52.156;21.048;2023-07-08T06:41:28;26.10;1.00
18305;DHT22;9278;52.156;21.048;2023-07-08T06:43:57;26.10;1.00
18305;DHT22;9278;52.156;21.048;2023-07-08T06:46:28;26.10;1.00
18305;DHT22;9278;52.156;21.048;2023-07-08T06:48:56;26.10;1.00
18305;DHT22;9278;52.156;21.048;2023-07-08T06:51:25;26.10;1.00
18305;DHT22;9278;52.156;21.048;2023-07-08T06:53:53;26.10;1.00
18305;DHT22;9278;52.156;21.048;2023-07-08T06:56:22;26.20;1.00
18305;DHT22;9278;52.156;21.048;2023-07-08T06:58:50;26.20;1.00
18305;DHT22;9278;52.156;21.048;2023-07-08T07:01:20;26.20;1.00
18305;DHT22;9278;52.156;21.048;2023-07-08T07:03:49;26.20;1.00
18305;DHT22;9278;52.156;21.048;2023-07-08T07:06:18;26.20;1.00
18305;DHT22;9278;52.156;21.048;2023-07-08T07:08:46;26.20;1.00
18305;DHT22;9278;52.156;21.048;2023-07-08T07:11:15;26.20;1.00
18305;DHT22;9278;52.156;21.048;2023-07-08T07:13:46;26.20;1.00
18305;DHT22;9278;52.156;21.048;2023-07-08T07:16:14;26.10;1.00
18305;DHT22;9278;52.156;21.048;2023-07-08T07:18:44;26.20;1.00
18305;DHT22;9278;52.156;21.048;2023-07-08T07:21:13;26.20;1.00
18305;DHT22;9278;52.156;21.048;2023-07-08T07:23:41;26.10;1.00
18305;DHT22;9278;52.156;21.048;2023-07-08T07:26:10;26.10;1.00
18305;DHT22;9278;52.156;21.048;2023-07-08T07:28:38;26.10;1.00
18305;DHT22;9278;52.156;21.048;2023-07-08T07:31:07;26.20;1.00
18305;DHT22;9278;52.156;21.048;2023-07-08T07:33:38;26.20;1.00
18305;DHT22;9278;52.156;21.048;2023-07-08T07:36:07;26.10;1.00
18305;DHT22;9278;52.156;21.048;2023-07-08T07:38:36;26.10;1.00
18305;DHT22;9278;52.156;21.048;2023-07-08T07:41:04;26.10;1.00
18305;DHT22;9278;52.156;21.048;2023-07-08T07:43:41;26.20;1.00
18305;DHT22;9278;52.156;21.048;2023-07-08T07:46:11;26.20;1.00
18305;DHT22;9278;52.156;21.048;2023-07-08T07:48:41;26.20;1.00
18305;DHT22;9278;52.156;21.048;2023-07-08T07:51:13;26.20;1.00
18305;DHT22;9278;52.156;21.048;2023-07-08T07:53:42;26.20;1.00
18305;DHT22;9278;52.156;21.048;2023-07-08T07:56:11;26.20;1.00
18305;DHT22;9278;52.156;21.048;2023-07-08T07:58:39;26.20;1.00
18305;DHT22;9278;52.156;21.048;2023-07-08T08:01:08;26.30;1.00
18305;DHT22;9278;52.156;21.048;2023-07-08T08:03:37;26.30;1.00
18305;DHT22;9278;52.156;21.048;2023-07-08T08:06:05;26.30;1.00
18305;DHT22;9278;52.156;21.048;2023-07-08T08:08:35;26.30;1.00
18305;DHT22;9278;52.156;21.048;2023-07-08T08:11:04;26.20;1.00
18305;DHT22;9278;52.156;21.048;2023-07-08T08:13:32;26.30;1.00
18305;DHT22;9278;52.156;21.048;2023-07-08T08:16:02;26.20;1.00
18305;DHT22;9278;52.156;21.048;2023-07-08T08:18:31;26.20;1.00
18305;DHT22;9278;52.156;21.048;2023-07-08T08:21:00;26.20;1.00
18305;DHT22;9278;52.156;21.048;2023-07-08T08:23:28;26.20;1.00
18305;DHT22;9278;52.156;21.048;2023-07-08T08:25:58;26.30;1.00
18305;DHT22;9278;52.156;21.048;2023-07-08T08:28:29;26.30;1.00
18305;DHT22;9278;52.156;21.048;2023-07-08T08:30:58;26.30;1.00
18305;DHT22;9278;52.156;21.048;2023-07-08T08:33:26;26.30;1.00
18305;DHT22;9278;52.156;21.048;2023-07-08T08:35:54;26.30;1.00
18305;DHT22;9278;52.156;21.048;2023-07-08T08:38:26;26.30;1.00
18305;DHT22;9278;52.156;21.048;2023-07-08T08:40:54;26.30;1.00
18305;DHT22;9278;52.156;21.048;2023-07-08T08:43:33;26.30;1.00
18305;DHT22;9278;52.156;21.048;2023-07-08T08:46:09;26.40;1.00
18305;DHT22;9278;52.156;21.048;2023-07-08T08:48:45;26.30;1.00
18305;DHT22;9278;52.156;21.048;2023-07-08T08:51:16;26.30;1.00
18305;DHT22;9278;52.156;21.048;2023-07-08T08:53:45;26.30;1.00
18305;DHT22;9278;52.156;21.048;2023-07-08T08:56:20;26.30;1.00
18305;DHT22;9278;52.156;21.048;2023-07-08T08:58:56;26.30;1.00
18305;DHT22;9278;52.156;21.048;2023-07-08T09:01:26;26.30;1.00
18305;DHT22;9278;52.156;21.048;2023-07-08T09:03:57;26.30;1.00
18305;DHT22;9278;52.156;21.048;2023-07-08T09:06:28;26.30;1.00
18305;DHT22;9278;52.156;21.048;2023-07-08T09:09:01;26.30;1.00
18305;DHT22;9278;52.156;21.048;2023-07-08T09:11:40;26.30;1.00
18305;DHT22;9278;52.156;21.048;2023-07-08T09:14:18;26.40;1.00
18305;DHT22;9278;52.156;21.048;2023-07-08T09:16:54;26.30;1.00
18305;DHT22;9278;52.156;21.048;2023-07-08T09:19:28;27.00;1.00
18305;DHT22;9278;52.156;21.048;2023-07-08T09:22:02;26.30;1.00
18305;DHT22;9278;52.156;21.048;2023-07-08T09:24:40;26.30;1.00
18305;DHT22;9278;52.156;21.048;2023-07-08T09:27:09;26.30;1.00
18305;DHT22;9278;52.156;21.048;2023-07-08T09:29:38;26.30;1.00
18305;DHT22;9278;52.156;21.048;2023-07-08T09:32:15;26.30;1.00
18305;DHT22;9278;52.156;21.048;2023-07-08T09:34:47;26.40;1.00
18305;DHT22;9278;52.156;21.048;2023-07-08T09:37:23;26.40;1.00
18305;DHT22;9278;52.156;21.048;2023-07-08T09:39:53;26.40;1.00
18305;DHT22;9278;52.156;21.048;2023-07-08T09:42:25;26.40;1.00
18305;DHT22;9278;52.156;21.048;2023-07-08T09:44:58;26.40;1.00
18305;DHT22;9278;52.156;21.048;2023-07-08T09:47:32;26.50;1.00
18305;DHT22;9278;52.156;21.048;2023-07-08T09:50:04;26.40;1.00
18305;DHT22;9278;52.156;21.048;2023-07-08T09:52:43;26.40;1.00
18305;DHT22;9278;52.156;21.048;2023-07-08T09:55:12;26.40;1.00
18305;DHT22;9278;52.156;21.048;2023-07-08T09:57:40;26.50;1.00
18305;DHT22;9278;52.156;21.048;2023-07-08T10:00:15;26.50;1.00
18305;DHT22;9278;52.156;21.048;2023-07-08T10:02:46;26.50;1.00
18305;DHT22;9278;52.156;21.048;2023-07-08T10:05:18;26.50;1.00
18305;DHT22;9278;52.156;21.048;2023-07-08T10:07:47;26.60;1.00
18305;DHT22;9278;52.156;21.048;2023-07-08T10:10:19;26.50;1.00
18305;DHT22;9278;52.156;21.048;2023-07-08T10:12:56;26.60;1.00
18305;DHT22;9278;52.156;21.048;2023-07-08T10:15:33;26.60;1.00
18305;DHT22;9278;52.156;21.048;2023-07-08T10:18:02;26.60;1.00
18305;DHT22;9278;52.156;21.048;2023-07-08T10:20:38;26.60;1.00
18305;DHT22;9278;52.156;21.048;2023-07-08T10:23:19;26.60;1.00
18305;DHT22;9278;52.156;21.048;2023-07-08T10:25:58;26.60;1.00
18305;DHT22;9278;52.156;21.048;2023-07-08T10:28:34;26.60;1.00
18305;DHT22;9278;52.156;21.048;2023-07-08T10:31:16;26.60;1.00
18305;DHT22;9278;52.156;21.048;2023-07-08T10:34:12;26.60;1.00
18305;DHT22;9278;52.156;21.048;2023-07-08T10:36:49;26.60;1.00
18305;DHT22;9278;52.156;21.048;2023-07-08T10:42:23;26.60;1.00
18305;DHT22;9278;52.156;21.048;2023-07-08T10:45:06;26.60;1.00
18305;DHT22;9278;52.156;21.048;2023-07-08T10:47:44;26.60;1.00
18305;DHT22;9278;52.156;21.048;2023-07-08T10:50:28;26.60;1.00
18305;DHT22;9278;52.156;21.048;2023-07-08T10:53:10;26.60;1.00
18305;DHT22;9278;52.156;21.048;2023-07-08T10:55:47;26.60;1.00
18305;DHT22;9278;52.156;21.048;2023-07-08T10:58:34;26.60;1.00
18305;DHT22;9278;52.156;21.048;2023-07-08T11:01:10;26.60;1.00
18305;DHT22;9278;52.156;21.048;2023-07-08T11:04:19;26.60;1.00
18305;DHT22;9278;52.156;21.048;2023-07-08T11:06:55;26.60;1.00
18305;DHT22;9278;52.156;21.048;2023-07-08T11:09:28;26.60;1.00
18305;DHT22;9278;52.156;21.048;2023-07-08T11:12:01;26.60;1.00
18305;DHT22;9278;52.156;21.048;2023-07-08T11:14:41;26.60;1.00
18305;DHT22;9278;52.156;21.048;2023-07-08T11:17:15;26.60;1.00
18305;DHT22;9278;52.156;21.048;2023-07-08T11:19:50;26.60;1.00
18305;DHT22;9278;52.156;21.048;2023-07-08T11:22:21;26.60;1.00
18305;DHT22;9278;52.156;21.048;2023-07-08T11:24:51;26.70;1.00
18305;DHT22;9278;52.156;21.048;2023-07-08T11:27:25;26.60;1.00
18305;DHT22;9278;52.156;21.048;2023-07-08T11:29:56;26.60;1.00
18305;DHT22;9278;52.156;21.048;2023-07-08T11:32:28;26.70;1.00
18305;DHT22;9278;52.156;21.048;2023-07-08T11:35:01;26.70;1.00
18305;DHT22;9278;52.156;21.048;2023-07-08T11:37:30;26.70;1.00
18305;DHT22;9278;52.156;21.048;2023-07-08T11:40:06;26.70;1.00
18305;DHT22;9278;52.156;21.048;2023-07-08T11:42:40;26.80;1.00
18305;DHT22;9278;52.156;21.048;2023-07-08T11:45:31;26.70;1.00
18305;DHT22;9278;52.156;21.048;2023-07-08T11:48:10;26.80;1.00
18305;DHT22;9278;52.156;21.048;2023-07-08T11:50:43;26.80;1.00
18305;DHT22;9278;52.156;21.048;2023-07-08T11:53:30;26.80;1.00
18305;DHT22;9278;52.156;21.048;2023-07-08T11:56:02;26.80;1.00
18305;DHT22;9278;52.156;21.048;2023-07-08T11:58:49;26.90;1.00
18305;DHT22;9278;52.156;21.048;2023-07-08T12:01:23;26.80;1.00
18305;DHT22;9278;52.156;21.048;2023-07-08T12:03:55;26.90;1.00
18305;DHT22;9278;52.156;21.048;2023-07-08T12:06:47;26.90;1.00
18305;DHT22;9278;52.156;21.048;2023-07-08T12:09:23;26.90;1.00
18305;DHT22;9278;52.156;21.048;2023-07-08T12:11:59;26.90;1.00
18305;DHT22;9278;52.156;21.048;2023-07-08T12:14:29;26.90;1.00
18305;DHT22;9278;52.156;21.048;2023-07-08T12:16:57;26.90;1.00
18305;DHT22;9278;52.156;21.048;2023-07-08T12:19:27;26.90;1.00
18305;DHT22;9278;52.156;21.048;2023-07-08T12:22:04;26.90;1.00
18305;DHT22;9278;52.156;21.048;2023-07-08T12:24:33;26.90;1.00
18305;DHT22;9278;52.156;21.048;2023-07-08T12:27:03;26.90;1.00
18305;DHT22;9278;52.156;21.048;2023-07-08T12:29:31;26.90;1.00
18305;DHT22;9278;52.156;21.048;2023-07-08T12:32:00;26.90;1.00
18305;DHT22;9278;52.156;21.048;2023-07-08T12:34:28;26.90;1.00
18305;DHT22;9278;52.156;21.048;2023-07-08T12:36:57;26.90;1.00
18305;DHT22;9278;52.156;21.048;2023-07-08T12:39:33;26.90;1.00
18305;DHT22;9278;52.156;21.048;2023-07-08T12:42:04;26.90;1.00
18305;DHT22;9278;52.156;21.048;2023-07-08T12:44:38;26.90;1.00
18305;DHT22;9278;52.156;21.048;2023-07-08T12:47:09;26.90;1.00
18305;DHT22;9278;52.156;21.048;2023-07-08T12:49:39;26.90;1.00
18305;DHT22;9278;52.156;21.048;2023-07-08T12:52:19;26.90;1.00
18305;DHT22;9278;52.156;21.048;2023-07-08T12:54:49;26.90;1.00
18305;DHT22;9278;52.156;21.048;2023-07-08T12:57:18;26.90;1.00
18305;DHT22;9278;52.156;21.048;2023-07-08T12:59:47;26.90;1.00
18305;DHT22;9278;52.156;21.048;2023-07-08T13:02:17;26.90;1.00
18305;DHT22;9278;52.156;21.048;2023-07-08T13:04:50;26.90;1.00
18305;DHT22;9278;52.156;21.048;2023-07-08T13:07:32;27.00;1.00
18305;DHT22;9278;52.156;21.048;2023-07-08T13:10:04;26.90;1.00
18305;DHT22;9278;52.156;21.048;2023-07-08T13:12:34;26.90;1.00
18305;DHT22;9278;52.156;21.048;2023-07-08T13:15:08;26.90;1.00
18305;DHT22;9278;52.156;21.048;2023-07-08T13:17:40;26.90;1.00
18305;DHT22;9278;52.156;21.048;2023-07-08T13:20:12;26.90;1.00
18305;DHT22;9278;52.156;21.048;2023-07-08T13:22:42;26.90;1.00
18305;DHT22;9278;52.156;21.048;2023-07-08T13:25:16;26.90;1.00
18305;DHT22;9278;52.156;21.048;2023-07-08T13:27:55;26.90;1.00
18305;DHT22;9278;52.156;21.048;2023-07-08T13:30:26;27.00;1.00
18305;DHT22;9278;52.156;21.048;2023-07-08T13:32:55;27.00;1.00
18305;DHT22;9278;52.156;21.048;2023-07-08T13:35:28;27.00;1.00
18305;DHT22;9278;52.156;21.048;2023-07-08T13:38:03;27.00;1.00
18305;DHT22;9278;52.156;21.048;2023-07-08T13:40:32;27.00;1.00
18305;DHT22;9278;52.156;21.048;2023-07-08T13:43:01;27.00;1.00
18305;DHT22;9278;52.156;21.048;2023-07-08T13:45:31;27.00;1.00
18305;DHT22;9278;52.156;21.048;2023-07-08T13:48:09;27.00;1.00
18305;DHT22;9278;52.156;21.048;2023-07-08T13:50:47;27.00;1.00
18305;DHT22;9278;52.156;21.048;2023-07-08T13:53:19;27.00;1.00
18305;DHT22;9278;52.156;21.048;2023-07-08T13:55:57;27.00;1.00
18305;DHT22;9278;52.156;21.048;2023-07-08T13:58:28;27.00;1.00
18305;DHT22;9278;52.156;21.048;2023-07-08T14:00:58;27.00;1.00
18305;DHT22;9278;52.156;21.048;2023-07-08T14:03:27;27.00;1.00
18305;DHT22;9278;52.156;21.048;2023-07-08T14:05:55;27.00;1.00
18305;DHT22;9278;52.156;21.048;2023-07-08T14:08:24;27.00;1.00
18305;DHT22;9278;52.156;21.048;2023-07-08T14:10:55;27.10;1.00
18305;DHT22;9278;52.156;21.048;2023-07-08T14:13:23;27.10;1.00
18305;DHT22;9278;52.156;21.048;2023-07-08T14:15:54;27.00;1.00
18305;DHT22;9278;52.156;21.048;2023-07-08T14:18:22;27.10;1.00
18305;DHT22;9278;52.156;21.048;2023-07-08T14:20:51;27.00;1.00
18305;DHT22;9278;52.156;21.048;2023-07-08T14:23:19;27.00;1.00
18305;DHT22;9278;52.156;21.048;2023-07-08T14:25:48;27.10;1.00
18305;DHT22;9278;52.156;21.048;2023-07-08T14:28:17;27.10;1.00
18305;DHT22;9278;52.156;21.048;2023-07-08T14:30:47;27.00;1.00
18305;DHT22;9278;52.156;21.048;2023-07-08T14:33:16;27.10;1.00
18305;DHT22;9278;52.156;21.048;2023-07-08T14:35:44;27.10;1.00
18305;DHT22;9278;52.156;21.048;2023-07-08T14:38:13;27.10;1.00
18305;DHT22;9278;52.156;21.048;2023-07-08T14:40:42;27.10;1.00
18305;DHT22;9278;52.156;21.048;2023-07-08T14:43:15;27.10;1.00
18305;DHT22;9278;52.156;21.048;2023-07-08T14:45:48;27.10;1.00
18305;DHT22;9278;52.156;21.048;2023-07-08T14:48:17;27.00;1.00
18305;DHT22;9278;52.156;21.048;2023-07-08T14:50:46;27.10;1.00
18305;DHT22;9278;52.156;21.048;2023-07-08T14:53:15;27.10;1.00
18305;DHT22;9278;52.156;21.048;2023-07-08T14:55:46;27.10;1.00
18305;DHT22;9278;52.156;21.048;2023-07-08T14:58:20;27.10;1.00
18305;DHT22;9278;52.156;21.048;2023-07-08T15:00:53;27.10;1.00
18305;DHT22;9278;52.156;21.048;2023-07-08T15:03:24;27.00;1.00
18305;DHT22;9278;52.156;21.048;2023-07-08T15:05:52;27.10;1.00
18305;DHT22;9278;52.156;21.048;2023-07-08T15:08:21;27.10;1.00
18305;DHT22;9278;52.156;21.048;2023-07-08T15:10:51;27.10;1.00
18305;DHT22;9278;52.156;21.048;2023-07-08T15:13:23;27.10;1.00
18305;DHT22;9278;52.156;21.048;2023-07-08T15:15:55;27.10;1.00
18305;DHT22;9278;52.156;21.048;2023-07-08T15:18:24;27.10;1.00
18305;DHT22;9278;52.156;21.048;2023-07-08T15:20:52;27.10;1.00
18305;DHT22;9278;52.156;21.048;2023-07-08T15:23:21;27.10;1.00
18305;DHT22;9278;52.156;21.048;2023-07-08T15:25:49;27.10;1.00
18305;DHT22;9278;52.156;21.048;2023-07-08T15:28:25;27.10;1.00
18305;DHT22;9278;52.156;21.048;2023-07-08T15:31:03;27.10;1.00
18305;DHT22;9278;52.156;21.048;2023-07-08T15:33:31;27.10;1.00
18305;DHT22;9278;52.156;21.048;2023-07-08T15:36:00;27.10;1.00
18305;DHT22;9278;52.156;21.048;2023-07-08T15:38:28;27.10;1.00
18305;DHT22;9278;52.156;21.048;2023-07-08T15:40:57;27.10;1.00
18305;DHT22;9278;52.156;21.048;2023-07-08T15:43:26;27.20;1.00
18305;DHT22;9278;52.156;21.048;2023-07-08T15:45:54;27.20;1.00
18305;DHT22;9278;52.156;21.048;2023-07-08T15:48:27;27.20;1.00
18305;DHT22;9278;52.156;21.048;2023-07-08T15:50:55;27.20;1.00
18305;DHT22;9278;52.156;21.048;2023-07-08T15:53:24;27.20;1.00
18305;DHT22;9278;52.156;21.048;2023-07-08T15:55:53;27.20;1.00
18305;DHT22;9278;52.156;21.048;2023-07-08T15:58:26;27.20;1.00
18305;DHT22;9278;52.156;21.048;2023-07-08T16:00:55;27.20;1.00
18305;DHT22;9278;52.156;21.048;2023-07-08T16:03:25;27.20;1.00
18305;DHT22;9278;52.156;21.048;2023-07-08T16:05:57;27.20;1.00
18305;DHT22;9278;52.156;21.048;2023-07-08T16:08:25;27.20;1.00
18305;DHT22;9278;52.156;21.048;2023-07-08T16:10:56;27.20;1.00
18305;DHT22;9278;52.156;21.048;2023-07-08T16:13:27;27.30;1.00